sensor_id;sensor_type;location;lat;lon;timestamp;pressure;altitude;pressure_sealevel;temperature;humidity
41306;BME280;27051;50.376;19.152;2023-03-03T00:00:53;98425.21;;;3.19;48.22
41306;BME280;27051;50.376;19.152;2023-03-03T00:03:22;98426.64;;;3.15;48.34
41306;BME280;27051;50.376;19.152;2023-03-03T00:05:50;98420.69;;;3.15;48.48
41306;BME280;27051;50.376;19.152;2023-03-03T00:08:17;98418.54;;;3.18;48.39
41306;BME280;27051;50.376;19.152;2023-03-03T00:10:44;98418.05;;;2.98;48.25
41306;BME280;27051;50.376;19.152;2023-03-03T00:13:22;98413.14;;;2.96;48.57
41306;BME280;27051;50.376;19.152;2023-03-03T00:15:49;98413.38;;;2.93;48.63
41306;BME280;27051;50.376;19.152;2023-03-03T00:18:30;98409.95;;;2.86;48.54
41306;BME280;27051;50.376;19.152;2023-03-03T00:20:59;98412.56;;;2.88;48.75
41306;BME280;27051;50.376;19.152;2023-03-03T00:23:30;98409.71;;;2.87;48.82
41306;BME280;27051;50.376;19.152;2023-03-03T00:26:00;98415.75;;;2.99;48.97
41306;BME280;27051;50.376;19.152;2023-03-03T00:28:29;98414.83;;;2.91;48.68
41306;BME280;27051;50.376;19.152;2023-03-03T00:30:58;98415.66;;;2.92;49.03
41306;BME280;27051;50.376;19.152;2023-03-03T00:33:31;98415.49;;;2.99;48.94
41306;BME280;27051;50.376;19.152;2023-03-03T00:36:21;98415.65;;;3.00;49.03
41306;BME280;27051;50.376;19.152;2023-03-03T00:38:48;98414.63;;;2.95;48.93
41306;BME280;27051;50.376;19.152;2023-03-03T00:41:25;98419.24;;;2.85;48.95
41306;BME280;27051;50.376;19.152;2023-03-03T00:43:53;98421.23;;;2.77;49.01
41306;BME280;27051;50.376;19.152;2023-03-03T00:46:32;98420.52;;;2.78;49.06
41306;BME280;27051;50.376;19.152;2023-03-03T00:49:01;98419.19;;;2.81;49.35
41306;BME280;27051;50.376;19.152;2023-03-03T00:51:37;98419.61;;;2.90;49.24
41306;BME280;27051;50.376;19.152;2023-03-03T00:54:04;98418.44;;;2.86;49.11
41306;BME280;27051;50.376;19.152;2023-03-03T00:56:30;98418.71;;;2.80;49.20
41306;BME280;27051;50.376;19.152;2023-03-03T00:58:56;98412.45;;;2.78;49.24
41306;BME280;27051;50.376;19.152;2023-03-03T01:01:22;98408.21;;;2.78;49.44
41306;BME280;27051;50.376;19.152;2023-03-03T01:03:48;98401.23;;;2.81;49.43
41306;BME280;27051;50.376;19.152;2023-03-03T01:06:15;98401.08;;;2.84;49.50
41306;BME280;27051;50.376;19.152;2023-03-03T01:08:41;98397.84;;;2.85;49.47
41306;BME280;27051;50.376;19.152;2023-03-03T01:11:25;98396.88;;;2.76;49.30
41306;BME280;27051;50.376;19.152;2023-03-03T01:13:52;98393.59;;;2.69;49.36
41306;BME280;27051;50.376;19.152;2023-03-03T01:16:18;98393.17;;;2.61;49.47
41306;BME280;27051;50.376;19.152;2023-03-03T01:18:45;98387.48;;;2.57;49.77
41306;BME280;27051;50.376;19.152;2023-03-03T01:21:11;98383.23;;;2.64;49.70
41306;BME280;27051;50.376;19.152;2023-03-03T01:23:37;98379.46;;;2.58;49.61
41306;BME280;27051;50.376;19.152;2023-03-03T01:26:04;98377.50;;;2.64;49.91
41306;BME280;27051;50.376;19.152;2023-03-03T01:28:32;98377.04;;;2.68;49.64
41306;BME280;27051;50.376;19.152;2023-03-03T01:31:03;98374.28;;;2.68;49.55
41306;BME280;27051;50.376;19.152;2023-03-03T01:33:31;98370.73;;;2.51;49.38
41306;BME280;27051;50.376;19.152;2023-03-03T01:35:57;98368.89;;;2.29;49.58
41306;BME280;27051;50.376;19.152;2023-03-03T01:38:25;98362.58;;;2.21;49.93
41306;BME280;27051;50.376;19.152;2023-03-03T01:40:56;98365.70;;;2.16;49.79
41306;BME280;27051;50.376;19.152;2023-03-03T01:43:26;98365.84;;;2.17;50.01
41306;BME280;27051;50.376;19.152;2023-03-03T01:48:29;98365.73;;;2.26;49.99
41306;BME280;27051;50.376;19.152;2023-03-03T01:51:24;98363.42;;;2.22;50.17
41306;BME280;27051;50.376;19.152;2023-03-03T01:54:01;98356.48;;;2.27;50.30
41306;BME280;27051;50.376;19.152;2023-03-03T01:56:29;98350.94;;;2.30;50.18
41306;BME280;27051;50.376;19.152;2023-03-03T01:59:04;98354.57;;;2.27;50.26
41306;BME280;27051;50.376;19.152;2023-03-03T02:01:32;98355.35;;;2.30;50.27
41306;BME280;27051;50.376;19.152;2023-03-03T02:03:59;98354.36;;;2.26;50.44
41306;BME280;27051;50.376;19.152;2023-03-03T02:06:38;98355.21;;;2.33;50.43
41306;BME280;27051;50.376;19.152;2023-03-03T02:10:12;98358.15;;;2.38;50.44
41306;BME280;27051;50.376;19.152;2023-03-03T02:12:08;98359.69;;;2.31;50.37
41306;BME280;27051;50.376;19.152;2023-03-03T02:14:36;98357.04;;;2.18;50.33
41306;BME280;27051;50.376;19.152;2023-03-03T02:17:02;98355.79;;;2.01;50.30
41306;BME280;27051;50.376;19.152;2023-03-03T02:22:01;98363.92;;;2.06;50.70
41306;BME280;27051;50.376;19.152;2023-03-03T02:24:56;98359.20;;;2.12;50.99
41306;BME280;27051;50.376;19.152;2023-03-03T02:27:30;98363.48;;;2.29;50.88
41306;BME280;27051;50.376;19.152;2023-03-03T02:29:57;98362.23;;;2.34;50.79
41306;BME280;27051;50.376;19.152;2023-03-03T02:32:23;98361.60;;;2.30;50.80
41306;BME280;27051;50.376;19.152;2023-03-03T02:34:51;98358.10;;;2.16;50.77
41306;BME280;27051;50.376;19.152;2023-03-03T02:37:18;98360.04;;;2.14;50.92
41306;BME280;27051;50.376;19.152;2023-03-03T02:39:48;98363.66;;;2.11;50.92
41306;BME280;27051;50.376;19.152;2023-03-03T02:42:18;98363.36;;;2.08;51.00
41306;BME280;27051;50.376;19.152;2023-03-03T02:44:46;98361.67;;;2.08;51.13
41306;BME280;27051;50.376;19.152;2023-03-03T02:47:13;98360.05;;;2.11;51.15
41306;BME280;27051;50.376;19.152;2023-03-03T02:49:39;98358.77;;;2.13;51.05
41306;BME280;27051;50.376;19.152;2023-03-03T02:52:08;98360.72;;;2.15;51.09
41306;BME280;27051;50.376;19.152;2023-03-03T02:54:36;98362.56;;;2.02;50.83
41306;BME280;27051;50.376;19.152;2023-03-03T02:57:04;98357.16;;;1.94;51.07
41306;BME280;27051;50.376;19.152;2023-03-03T02:59:30;98360.38;;;1.88;51.14
41306;BME280;27051;50.376;19.152;2023-03-03T03:01:56;98363.11;;;1.92;51.22
41306;BME280;27051;50.376;19.152;2023-03-03T03:04:24;98364.30;;;1.97;51.28
41306;BME280;27051;50.376;19.152;2023-03-03T03:06:54;98364.75;;;1.99;51.24
41306;BME280;27051;50.376;19.152;2023-03-03T03:09:23;98362.90;;;2.08;51.21
41306;BME280;27051;50.376;19.152;2023-03-03T03:11:50;98362.46;;;2.09;51.18
41306;BME280;27051;50.376;19.152;2023-03-03T03:14:17;98359.29;;;2.02;51.14
41306;BME280;27051;50.376;19.152;2023-03-03T03:16:43;98354.73;;;2.00;51.33
41306;BME280;27051;50.376;19.152;2023-03-03T03:19:10;98353.36;;;1.97;51.24
41306;BME280;27051;50.376;19.152;2023-03-03T03:21:36;98353.77;;;1.93;51.24
41306;BME280;27051;50.376;19.152;2023-03-03T03:24:02;98357.35;;;1.96;51.32
41306;BME280;27051;50.376;19.152;2023-03-03T03:26:31;98356.43;;;2.00;51.30
41306;BME280;27051;50.376;19.152;2023-03-03T03:28:58;98351.67;;;1.98;51.21
41306;BME280;27051;50.376;19.152;2023-03-03T03:31:26;98351.11;;;1.94;51.28
41306;BME280;27051;50.376;19.152;2023-03-03T03:33:55;98351.95;;;1.93;51.35
41306;BME280;27051;50.376;19.152;2023-03-03T03:36:21;98353.77;;;2.07;51.38
41306;BME280;27051;50.376;19.152;2023-03-03T03:38:47;98344.52;;;2.17;51.18
41306;BME280;27051;50.376;19.152;2023-03-03T03:41:13;98337.02;;;2.14;51.14
41306;BME280;27051;50.376;19.152;2023-03-03T03:43:40;98336.29;;;2.07;51.36
41306;BME280;27051;50.376;19.152;2023-03-03T03:46:06;98336.16;;;2.01;51.26
41306;BME280;27051;50.376;19.152;2023-03-03T03:48:32;98347.20;;;1.91;51.23
41306;BME280;27051;50.376;19.152;2023-03-03T03:50:58;98343.54;;;1.79;51.04
41306;BME280;27051;50.376;19.152;2023-03-03T03:53:25;98347.05;;;1.76;51.26
41306;BME280;27051;50.376;19.152;2023-03-03T03:55:51;98348.27;;;1.74;51.32
41306;BME280;27051;50.376;19.152;2023-03-03T03:58:18;98344.44;;;1.70;51.21
41306;BME280;27051;50.376;19.152;2023-03-03T04:00:45;98342.90;;;1.68;51.29
41306;BME280;27051;50.376;19.152;2023-03-03T04:03:19;98342.71;;;1.55;51.41
41306;BME280;27051;50.376;19.152;2023-03-03T04:05:46;98350.69;;;1.50;51.49
41306;BME280;27051;50.376;19.152;2023-03-03T04:08:12;98346.24;;;1.49;51.15
41306;BME280;27051;50.376;19.152;2023-03-03T04:10:38;98342.66;;;1.44;51.44
41306;BME280;27051;50.376;19.152;2023-03-03T04:13:05;98343.60;;;1.38;51.69
41306;BME280;27051;50.376;19.152;2023-03-03T04:15:31;98342.73;;;1.31;51.69
41306;BME280;27051;50.376;19.152;2023-03-03T04:17:57;98339.02;;;1.30;52.07
41306;BME280;27051;50.376;19.152;2023-03-03T04:20:23;98334.48;;;1.41;52.26
41306;BME280;27051;50.376;19.152;2023-03-03T04:22:49;98341.56;;;1.53;52.36
41306;BME280;27051;50.376;19.152;2023-03-03T04:25:16;98343.98;;;1.57;52.01
41306;BME280;27051;50.376;19.152;2023-03-03T04:27:43;98349.11;;;1.59;51.90
41306;BME280;27051;50.376;19.152;2023-03-03T04:30:11;98355.67;;;1.60;51.87
41306;BME280;27051;50.376;19.152;2023-03-03T04:32:37;98362.55;;;1.59;51.66
41306;BME280;27051;50.376;19.152;2023-03-03T04:35:04;98364.15;;;1.49;51.61
41306;BME280;27051;50.376;19.152;2023-03-03T04:37:30;98365.46;;;1.41;51.59
41306;BME280;27051;50.376;19.152;2023-03-03T04:39:57;98363.89;;;1.38;51.60
41306;BME280;27051;50.376;19.152;2023-03-03T04:42:23;98360.14;;;1.34;51.64
41306;BME280;27051;50.376;19.152;2023-03-03T04:44:49;98357.10;;;1.38;51.74
41306;BME280;27051;50.376;19.152;2023-03-03T04:47:15;98358.92;;;1.36;51.78
41306;BME280;27051;50.376;19.152;2023-03-03T04:49:42;98359.13;;;1.25;51.72
41306;BME280;27051;50.376;19.152;2023-03-03T04:52:10;98353.21;;;1.20;51.82
41306;BME280;27051;50.376;19.152;2023-03-03T04:54:38;98359.84;;;1.18;51.80
41306;BME280;27051;50.376;19.152;2023-03-03T04:57:04;98368.73;;;1.07;51.79
41306;BME280;27051;50.376;19.152;2023-03-03T04:59:30;98373.02;;;0.97;52.04
41306;BME280;27051;50.376;19.152;2023-03-03T05:01:57;98373.98;;;1.00;52.29
41306;BME280;27051;50.376;19.152;2023-03-03T05:04:23;98372.52;;;1.08;52.38
41306;BME280;27051;50.376;19.152;2023-03-03T05:06:49;98373.85;;;1.19;52.41
41306;BME280;27051;50.376;19.152;2023-03-03T05:09:15;98372.69;;;1.22;52.43
41306;BME280;27051;50.376;19.152;2023-03-03T05:11:42;98383.00;;;1.25;52.53
41306;BME280;27051;50.376;19.152;2023-03-03T05:14:08;98386.46;;;1.34;53.03
41306;BME280;27051;50.376;19.152;2023-03-03T05:16:34;98380.25;;;1.38;52.69
41306;BME280;27051;50.376;19.152;2023-03-03T05:19:00;98376.59;;;1.40;52.63
41306;BME280;27051;50.376;19.152;2023-03-03T05:21:27;98370.11;;;1.43;52.75
41306;BME280;27051;50.376;19.152;2023-03-03T05:23:53;98373.30;;;1.49;52.67
41306;BME280;27051;50.376;19.152;2023-03-03T05:26:19;98372.50;;;1.53;52.63
41306;BME280;27051;50.376;19.152;2023-03-03T05:28:45;98375.52;;;1.52;52.49
41306;BME280;27051;50.376;19.152;2023-03-03T05:31:12;98379.79;;;1.46;52.41
41306;BME280;27051;50.376;19.152;2023-03-03T05:33:39;98382.91;;;1.49;52.42
41306;BME280;27051;50.376;19.152;2023-03-03T05:36:06;98391.13;;;1.47;52.52
41306;BME280;27051;50.376;19.152;2023-03-03T05:38:36;98398.11;;;1.49;52.40
41306;BME280;27051;50.376;19.152;2023-03-03T05:41:02;98403.56;;;1.48;52.52
41306;BME280;27051;50.376;19.152;2023-03-03T05:43:28;98402.59;;;1.54;52.61
41306;BME280;27051;50.376;19.152;2023-03-03T05:45:55;98401.70;;;1.50;52.47
41306;BME280;27051;50.376;19.152;2023-03-03T05:48:22;98403.41;;;1.49;52.56
41306;BME280;27051;50.376;19.152;2023-03-03T05:50:48;98406.55;;;1.47;52.52
41306;BME280;27051;50.376;19.152;2023-03-03T05:53:15;98409.73;;;1.44;52.51
41306;BME280;27051;50.376;19.152;2023-03-03T05:55:43;98404.45;;;1.40;52.52
41306;BME280;27051;50.376;19.152;2023-03-03T05:58:09;98409.38;;;1.40;52.81
41306;BME280;27051;50.376;19.152;2023-03-03T06:00:35;98415.52;;;1.42;52.88
41306;BME280;27051;50.376;19.152;2023-03-03T06:03:01;98422.87;;;1.44;52.80
41306;BME280;27051;50.376;19.152;2023-03-03T06:05:28;98431.29;;;1.42;52.78
41306;BME280;27051;50.376;19.152;2023-03-03T06:07:54;98431.33;;;1.35;52.90
41306;BME280;27051;50.376;19.152;2023-03-03T06:10:20;98423.30;;;1.27;52.97
41306;BME280;27051;50.376;19.152;2023-03-03T06:12:47;98427.46;;;1.31;52.99
41306;BME280;27051;50.376;19.152;2023-03-03T06:15:13;98434.24;;;1.32;53.27
41306;BME280;27051;50.376;19.152;2023-03-03T06:17:39;98423.05;;;1.26;52.94
41306;BME280;27051;50.376;19.152;2023-03-03T06:20:06;98427.48;;;1.28;53.29
41306;BME280;27051;50.376;19.152;2023-03-03T06:22:32;98429.67;;;1.37;53.19
41306;BME280;27051;50.376;19.152;2023-03-03T06:24:58;98431.61;;;1.42;53.26
41306;BME280;27051;50.376;19.152;2023-03-03T06:27:24;98419.70;;;1.51;53.21
41306;BME280;27051;50.376;19.152;2023-03-03T06:29:51;98425.53;;;1.53;52.89
41306;BME280;27051;50.376;19.152;2023-03-03T06:32:17;98442.19;;;1.50;53.05
41306;BME280;27051;50.376;19.152;2023-03-03T06:34:43;98445.75;;;1.59;53.22
41306;BME280;27051;50.376;19.152;2023-03-03T06:37:09;98442.30;;;1.60;53.10
41306;BME280;27051;50.376;19.152;2023-03-03T06:39:36;98431.34;;;1.60;53.18
41306;BME280;27051;50.376;19.152;2023-03-03T06:42:02;98430.86;;;1.59;53.27
41306;BME280;27051;50.376;19.152;2023-03-03T06:44:28;98434.77;;;1.62;53.32
41306;BME280;27051;50.376;19.152;2023-03-03T06:46:54;98430.45;;;1.66;53.44
41306;BME280;27051;50.376;19.152;2023-03-03T06:49:20;98417.48;;;1.74;53.24
41306;BME280;27051;50.376;19.152;2023-03-03T06:51:47;98417.80;;;1.65;53.29
41306;BME280;27051;50.376;19.152;2023-03-03T06:54:18;98429.13;;;1.79;53.61
41306;BME280;27051;50.376;19.152;2023-03-03T06:56:45;98434.68;;;1.93;53.61
41306;BME280;27051;50.376;19.152;2023-03-03T06:59:19;98431.78;;;1.98;53.63
41306;BME280;27051;50.376;19.152;2023-03-03T07:01:47;98416.41;;;2.15;53.63
41306;BME280;27051;50.376;19.152;2023-03-03T07:06:42;98403.97;;;2.27;53.37
41306;BME280;27051;50.376;19.152;2023-03-03T07:09:20;98405.98;;;2.27;53.35
41306;BME280;27051;50.376;19.152;2023-03-03T07:11:46;98422.44;;;2.31;53.42
41306;BME280;27051;50.376;19.152;2023-03-03T07:14:16;98416.23;;;2.32;53.13
41306;BME280;27051;50.376;19.152;2023-03-03T07:16:43;98413.33;;;2.30;53.28
41306;BME280;27051;50.376;19.152;2023-03-03T07:19:22;98435.85;;;2.31;53.21
41306;BME280;27051;50.376;19.152;2023-03-03T07:21:50;98443.15;;;2.36;53.39
41306;BME280;27051;50.376;19.152;2023-03-03T07:24:24;98436.55;;;2.37;53.48
41306;BME280;27051;50.376;19.152;2023-03-03T07:26:50;98437.14;;;2.44;53.38
41306;BME280;27051;50.376;19.152;2023-03-03T07:29:24;98438.70;;;2.43;53.40
41306;BME280;27051;50.376;19.152;2023-03-03T07:31:51;98442.45;;;2.38;53.38
41306;BME280;27051;50.376;19.152;2023-03-03T07:34:23;98436.79;;;2.43;53.48
41306;BME280;27051;50.376;19.152;2023-03-03T07:36:53;98445.02;;;2.44;53.42
41306;BME280;27051;50.376;19.152;2023-03-03T07:39:36;98436.73;;;2.43;53.68
41306;BME280;27051;50.376;19.152;2023-03-03T07:42:25;98433.85;;;2.46;53.75
41306;BME280;27051;50.376;19.152;2023-03-03T07:44:54;98444.70;;;2.56;53.74
41306;BME280;27051;50.376;19.152;2023-03-03T07:47:34;98453.61;;;2.69;53.82
41306;BME280;27051;50.376;19.152;2023-03-03T07:50:27;98466.75;;;2.92;53.91
41306;BME280;27051;50.376;19.152;2023-03-03T07:52:56;98473.80;;;3.11;53.88
41306;BME280;27051;50.376;19.152;2023-03-03T07:55:40;98465.39;;;3.13;53.67
41306;BME280;27051;50.376;19.152;2023-03-03T08:03:41;98457.18;;;2.99;53.70
41306;BME280;27051;50.376;19.152;2023-03-03T08:08:54;98444.29;;;2.97;53.76
41306;BME280;27051;50.376;19.152;2023-03-03T08:11:23;98444.66;;;2.87;53.78
41306;BME280;27051;50.376;19.152;2023-03-03T08:13:50;98445.34;;;2.81;53.87
41306;BME280;27051;50.376;19.152;2023-03-03T08:18:47;98450.99;;;3.01;54.24
41306;BME280;27051;50.376;19.152;2023-03-03T08:21:15;98448.34;;;3.12;54.01
41306;BME280;27051;50.376;19.152;2023-03-03T08:23:42;98454.92;;;3.08;53.89
41306;BME280;27051;50.376;19.152;2023-03-03T08:26:09;98465.89;;;3.04;53.94
41306;BME280;27051;50.376;19.152;2023-03-03T08:28:35;98469.30;;;3.20;54.22
41306;BME280;27051;50.376;19.152;2023-03-03T08:31:01;98477.31;;;3.27;54.01
41306;BME280;27051;50.376;19.152;2023-03-03T08:33:28;98480.88;;;3.26;54.10
41306;BME280;27051;50.376;19.152;2023-03-03T08:35:54;98485.21;;;3.18;54.12
41306;BME280;27051;50.376;19.152;2023-03-03T08:38:21;98489.56;;;3.17;54.19
41306;BME280;27051;50.376;19.152;2023-03-03T08:40:48;98483.54;;;3.08;54.24
41306;BME280;27051;50.376;19.152;2023-03-03T08:43:15;98475.33;;;3.07;54.23
41306;BME280;27051;50.376;19.152;2023-03-03T08:45:44;98472.69;;;3.06;54.38
41306;BME280;27051;50.376;19.152;2023-03-03T08:48:10;98467.23;;;3.10;54.44
41306;BME280;27051;50.376;19.152;2023-03-03T08:51:05;98474.59;;;3.22;54.50
41306;BME280;27051;50.376;19.152;2023-03-03T08:53:31;98477.34;;;3.24;54.45
41306;BME280;27051;50.376;19.152;2023-03-03T08:55:57;98467.69;;;3.21;54.37
41306;BME280;27051;50.376;19.152;2023-03-03T08:58:23;98458.30;;;3.14;54.65
41306;BME280;27051;50.376;19.152;2023-03-03T09:00:50;98460.84;;;3.15;54.70
41306;BME280;27051;50.376;19.152;2023-03-03T09:03:16;98461.63;;;3.16;54.64
41306;BME280;27051;50.376;19.152;2023-03-03T09:05:43;98461.16;;;3.20;54.73
41306;BME280;27051;50.376;19.152;2023-03-03T09:08:09;98455.48;;;3.26;54.75
41306;BME280;27051;50.376;19.152;2023-03-03T09:10:35;98452.17;;;3.33;54.66
41306;BME280;27051;50.376;19.152;2023-03-03T09:13:07;98451.09;;;3.38;54.73
41306;BME280;27051;50.376;19.152;2023-03-03T09:15:46;98454.98;;;3.38;54.57
41306;BME280;27051;50.376;19.152;2023-03-03T09:18:20;98460.74;;;3.35;54.62
41306;BME280;27051;50.376;19.152;2023-03-03T09:23:33;98468.15;;;3.28;54.73
41306;BME280;27051;50.376;19.152;2023-03-03T09:31:41;98465.58;;;3.20;54.87
41306;BME280;27051;50.376;19.152;2023-03-03T09:37:17;98463.73;;;3.34;55.04
41306;BME280;27051;50.376;19.152;2023-03-03T09:39:45;98459.00;;;3.39;54.72
41306;BME280;27051;50.376;19.152;2023-03-03T09:42:41;98462.86;;;3.46;54.99
41306;BME280;27051;50.376;19.152;2023-03-03T09:50:43;98470.75;;;3.48;54.87
41306;BME280;27051;50.376;19.152;2023-03-03T09:53:34;98464.60;;;3.53;54.93
41306;BME280;27051;50.376;19.152;2023-03-03T09:58:53;98465.55;;;3.75;55.08
41306;BME280;27051;50.376;19.152;2023-03-03T10:13:06;98484.31;;;3.89;54.64
41306;BME280;27051;50.376;19.152;2023-03-03T10:15:38;98485.69;;;3.89;54.56
41306;BME280;27051;50.376;19.152;2023-03-03T10:26:06;98483.55;;;3.91;54.67
41306;BME280;27051;50.376;19.152;2023-03-03T10:31:18;98490.65;;;3.93;54.67
41306;BME280;27051;50.376;19.152;2023-03-03T10:37:02;98500.20;;;3.73;54.77
41306;BME280;27051;50.376;19.152;2023-03-03T10:40:37;98497.98;;;3.66;54.84
41306;BME280;27051;50.376;19.152;2023-03-03T10:42:51;98495.38;;;3.66;54.90
41306;BME280;27051;50.376;19.152;2023-03-03T10:51:42;98492.45;;;3.76;54.80
41306;BME280;27051;50.376;19.152;2023-03-03T10:57:33;98489.52;;;3.94;54.95
41306;BME280;27051;50.376;19.152;2023-03-03T11:00:22;98487.70;;;4.03;54.66
41306;BME280;27051;50.376;19.152;2023-03-03T11:05:50;98485.20;;;4.07;54.66
41306;BME280;27051;50.376;19.152;2023-03-03T11:08:26;98483.13;;;4.03;54.61
41306;BME280;27051;50.376;19.152;2023-03-03T11:19:05;98476.05;;;4.59;54.29
41306;BME280;27051;50.376;19.152;2023-03-03T11:24:18;98470.91;;;4.68;53.77
41306;BME280;27051;50.376;19.152;2023-03-03T11:27:19;98466.81;;;4.62;53.87
41306;BME280;27051;50.376;19.152;2023-03-03T11:30:17;98470.19;;;4.72;54.00
41306;BME280;27051;50.376;19.152;2023-03-03T11:33:00;98470.05;;;4.79;53.86
41306;BME280;27051;50.376;19.152;2023-03-03T11:35:35;98467.89;;;4.80;53.91
41306;BME280;27051;50.376;19.152;2023-03-03T11:45:49;98469.13;;;4.79;53.71
41306;BME280;27051;50.376;19.152;2023-03-03T11:48:37;98466.68;;;4.76;53.62
41306;BME280;27051;50.376;19.152;2023-03-03T11:51:19;98462.98;;;4.71;53.77
41306;BME280;27051;50.376;19.152;2023-03-03T11:53:58;98460.83;;;4.63;53.63
41306;BME280;27051;50.376;19.152;2023-03-03T11:56:34;98462.23;;;4.51;53.73
41306;BME280;27051;50.376;19.152;2023-03-03T11:59:33;98461.90;;;4.51;53.75
41306;BME280;27051;50.376;19.152;2023-03-03T12:05:08;98461.05;;;4.51;53.55
41306;BME280;27051;50.376;19.152;2023-03-03T12:07:43;98464.76;;;4.56;53.56
41306;BME280;27051;50.376;19.152;2023-03-03T12:10:21;98464.95;;;4.67;53.50
41306;BME280;27051;50.376;19.152;2023-03-03T12:13:02;98464.14;;;4.72;53.48
41306;BME280;27051;50.376;19.152;2023-03-03T12:26:54;98454.41;;;4.95;52.88
41306;BME280;27051;50.376;19.152;2023-03-03T12:29:26;98453.43;;;4.94;53.07
41306;BME280;27051;50.376;19.152;2023-03-03T12:34:56;98443.65;;;5.23;52.91
41306;BME280;27051;50.376;19.152;2023-03-03T12:37:33;98448.72;;;5.28;52.62
41306;BME280;27051;50.376;19.152;2023-03-03T12:40:18;98445.98;;;5.30;52.67
41306;BME280;27051;50.376;19.152;2023-03-03T12:48:16;98439.11;;;5.29;52.52
41306;BME280;27051;50.376;19.152;2023-03-03T12:56:07;98427.09;;;5.34;52.41
41306;BME280;27051;50.376;19.152;2023-03-03T12:58:49;98420.79;;;5.45;52.57
41306;BME280;27051;50.376;19.152;2023-03-03T13:04:09;98420.05;;;5.64;52.10
41306;BME280;27051;50.376;19.152;2023-03-03T13:12:17;98414.61;;;5.55;51.79
41306;BME280;27051;50.376;19.152;2023-03-03T13:15:19;98415.59;;;5.60;51.64
41306;BME280;27051;50.376;19.152;2023-03-03T13:23:03;98418.77;;;5.55;51.33
41306;BME280;27051;50.376;19.152;2023-03-03T13:28:32;98422.48;;;5.85;51.44
41306;BME280;27051;50.376;19.152;2023-03-03T13:31:20;98422.45;;;5.89;50.84
41306;BME280;27051;50.376;19.152;2023-03-03T13:33:53;98419.81;;;5.83;50.95
41306;BME280;27051;50.376;19.152;2023-03-03T13:36:25;98419.59;;;5.80;51.00
41306;BME280;27051;50.376;19.152;2023-03-03T13:38:56;98420.40;;;5.83;51.27
41306;BME280;27051;50.376;19.152;2023-03-03T13:44:08;98420.48;;;5.72;50.82
41306;BME280;27051;50.376;19.152;2023-03-03T13:46:39;98419.29;;;5.67;50.92
41306;BME280;27051;50.376;19.152;2023-03-03T13:49:23;98418.77;;;5.71;51.08
41306;BME280;27051;50.376;19.152;2023-03-03T14:08:12;98407.78;;;5.48;51.02
41306;BME280;27051;50.376;19.152;2023-03-03T14:13:38;98413.38;;;5.35;50.84
41306;BME280;27051;50.376;19.152;2023-03-03T14:18:56;98412.16;;;5.20;50.80
41306;BME280;27051;50.376;19.152;2023-03-03T14:21:30;98410.12;;;5.20;50.97
41306;BME280;27051;50.376;19.152;2023-03-03T14:26:47;98409.39;;;5.19;50.95
41306;BME280;27051;50.376;19.152;2023-03-03T14:32:25;98411.55;;;5.09;51.04
41306;BME280;27051;50.376;19.152;2023-03-03T14:35:00;98414.29;;;5.09;51.26
41306;BME280;27051;50.376;19.152;2023-03-03T14:37:44;98412.79;;;5.18;51.23
41306;BME280;27051;50.376;19.152;2023-03-03T14:40:29;98403.62;;;5.14;51.14
41306;BME280;27051;50.376;19.152;2023-03-03T14:42:56;98406.11;;;5.10;51.08
41306;BME280;27051;50.376;19.152;2023-03-03T14:45:31;98404.96;;;4.96;51.12
41306;BME280;27051;50.376;19.152;2023-03-03T14:47:59;98400.23;;;4.97;51.20
41306;BME280;27051;50.376;19.152;2023-03-03T14:50:38;98403.85;;;5.02;51.28
41306;BME280;27051;50.376;19.152;2023-03-03T14:55:48;98404.48;;;4.99;51.19
41306;BME280;27051;50.376;19.152;2023-03-03T14:58:31;98412.23;;;4.92;51.26
41306;BME280;27051;50.376;19.152;2023-03-03T15:01:28;98409.13;;;4.85;51.23
41306;BME280;27051;50.376;19.152;2023-03-03T15:09:22;98395.30;;;4.35;51.65
41306;BME280;27051;50.376;19.152;2023-03-03T15:11:54;98393.92;;;4.35;51.85
41306;BME280;27051;50.376;19.152;2023-03-03T15:14:28;98393.11;;;4.39;51.86
41306;BME280;27051;50.376;19.152;2023-03-03T15:17:37;98393.52;;;4.44;51.73
41306;BME280;27051;50.376;19.152;2023-03-03T15:20:19;98391.23;;;4.37;51.78
41306;BME280;27051;50.376;19.152;2023-03-03T15:22:53;98391.44;;;4.30;51.65
41306;BME280;27051;50.376;19.152;2023-03-03T15:25:23;98395.77;;;4.21;51.94
41306;BME280;27051;50.376;19.152;2023-03-03T15:28:09;98398.32;;;4.22;51.98
41306;BME280;27051;50.376;19.152;2023-03-03T15:30:54;98397.23;;;4.18;51.98
41306;BME280;27051;50.376;19.152;2023-03-03T15:36:17;98400.65;;;4.16;52.12
41306;BME280;27051;50.376;19.152;2023-03-03T15:56:45;98396.39;;;3.86;52.64
41306;BME280;27051;50.376;19.152;2023-03-03T16:02:27;98393.98;;;3.88;52.73
41306;BME280;27051;50.376;19.152;2023-03-03T16:05:22;98395.56;;;4.00;52.69
41306;BME280;27051;50.376;19.152;2023-03-03T16:08:12;98396.98;;;3.93;52.56
41306;BME280;27051;50.376;19.152;2023-03-03T16:11:03;98401.03;;;3.94;52.57
41306;BME280;27051;50.376;19.152;2023-03-03T16:14:42;98403.66;;;3.88;52.64
41306;BME280;27051;50.376;19.152;2023-03-03T16:16:52;98402.95;;;3.81;52.81
41306;BME280;27051;50.376;19.152;2023-03-03T16:19:37;98402.55;;;3.80;52.81
41306;BME280;27051;50.376;19.152;2023-03-03T16:22:40;98397.79;;;3.73;52.78
41306;BME280;27051;50.376;19.152;2023-03-03T16:31:12;98403.06;;;3.69;52.95
41306;BME280;27051;50.376;19.152;2023-03-03T16:33:49;98402.84;;;3.57;52.98
41306;BME280;27051;50.376;19.152;2023-03-03T16:36:22;98405.16;;;3.53;53.11
41306;BME280;27051;50.376;19.152;2023-03-03T16:39:14;98403.52;;;3.58;53.29
41306;BME280;27051;50.376;19.152;2023-03-03T16:42:16;98403.27;;;3.57;53.26
41306;BME280;27051;50.376;19.152;2023-03-03T17:01:26;98409.77;;;3.88;53.22
41306;BME280;27051;50.376;19.152;2023-03-03T17:04:12;98406.11;;;3.83;53.23
41306;BME280;27051;50.376;19.152;2023-03-03T17:17:46;98413.65;;;3.51;53.49
41306;BME280;27051;50.376;19.152;2023-03-03T17:31:36;98418.98;;;3.71;53.68